createdAt,value
2019-03-18T00:01:44.756Z,77.60
2019-03-18T00:04:15.927Z,78.10
2019-03-18T00:06:48.746Z,77.92
2019-03-18T00:09:19.852Z,78.44
2019-03-18T00:11:50.890Z,77.96
2019-03-18T00:14:22.044Z,77.69
2019-03-18T00:16:53.212Z,78.31
2019-03-18T00:19:24.205Z,78.05
2019-03-18T00:21:55.295Z,77.19
2019-03-18T00:24:26.402Z,77.45
2019-03-18T00:26:57.598Z,78.29
2019-03-18T00:29:29.177Z,79.00
2019-03-18T00:32:00.290Z,79.34
2019-03-18T00:34:31.464Z,79.74
2019-03-18T00:37:02.755Z,79.08
2019-03-18T00:39:33.795Z,78.52
2019-03-18T00:42:04.828Z,78.64
2019-03-18T00:44:35.873Z,79.39
2019-03-18T00:47:07.012Z,79.10
2019-03-18T00:49:38.049Z,79.23
2019-03-18T00:52:09.095Z,79.28
2019-03-18T00:54:40.207Z,79.64
2019-03-18T00:57:11.322Z,79.44
2019-03-18T00:59:42.386Z,79.03
2019-03-18T01:02:13.504Z,78.63
2019-03-18T01:04:44.664Z,78.54
2019-03-18T01:07:15.799Z,78.98
2019-03-18T01:09:46.866Z,79.33
2019-03-18T01:12:17.983Z,79.84
2019-03-18T01:14:48.983Z,79.61
2019-03-18T01:17:20.030Z,79.26
2019-03-18T01:19:51.176Z,78.68
2019-03-18T01:22:22.254Z,78.08
2019-03-18T01:24:53.355Z,77.92
2019-03-18T01:27:25.576Z,78.24
2019-03-18T01:29:56.762Z,79.04
2019-03-18T01:32:27.921Z,79.28
2019-03-18T01:34:59.054Z,80.10
2019-03-18T01:37:30.319Z,79.16
2019-03-18T01:40:01.339Z,78.85
2019-03-18T01:42:32.531Z,78.79
2019-03-18T01:45:04.625Z,78.96
2019-03-18T01:47:35.713Z,79.06
2019-03-18T01:50:16.720Z,79.21
2019-03-18T01:52:47.752Z,78.65
2019-03-18T01:55:18.922Z,78.39
2019-03-18T01:57:50.008Z,79.13
2019-03-18T02:00:21.024Z,79.39
2019-03-18T02:02:52.150Z,79.85
2019-03-18T02:05:23.241Z,79.05
2019-03-18T02:07:54.367Z,79.66
2019-03-18T02:10:25.356Z,80.52
2019-03-18T02:12:56.459Z,81.11
2019-03-18T02:15:27.504Z,81.36
2019-03-18T02:17:58.493Z,81.43
2019-03-18T02:20:29.588Z,81.50
2019-03-18T02:23:00.630Z,80.64
2019-03-18T02:25:31.762Z,80.50
2019-03-18T02:28:03.301Z,79.73
2019-03-18T02:30:34.361Z,79.40
2019-03-18T02:33:05.436Z,79.43
2019-03-18T02:35:36.420Z,79.94
2019-03-18T02:38:07.633Z,80.76
2019-03-18T02:40:38.820Z,81.04
2019-03-18T02:43:09.934Z,80.79
2019-03-18T02:45:41.015Z,80.43
2019-03-18T02:48:12.051Z,80.21
2019-03-18T02:50:43.252Z,79.90
2019-03-18T02:53:14.340Z,79.46
2019-03-18T02:55:45.459Z,79.67
2019-03-18T02:58:16.671Z,79.80
2019-03-18T03:00:47.666Z,79.86
2019-03-18T03:03:18.870Z,79.87
2019-03-18T03:05:49.952Z,79.85
2019-03-18T03:08:21.049Z,79.75
2019-03-18T03:10:53.380Z,79.62
2019-03-18T03:13:24.564Z,79.92
2019-03-18T03:15:55.675Z,79.92
2019-03-18T03:18:26.760Z,80.21
2019-03-18T03:20:57.789Z,81.63
2019-03-18T03:23:30.380Z,82.30
2019-03-18T03:26:01.391Z,82.39
2019-03-18T03:28:32.518Z,82.65
2019-03-18T03:31:03.966Z,82.42
2019-03-18T03:33:35.068Z,81.84
2019-03-18T03:36:06.142Z,81.81
2019-03-18T03:38:37.210Z,82.13
2019-03-18T03:41:08.236Z,82.65
2019-03-18T03:43:39.276Z,83.45
2019-03-18T03:46:10.315Z,83.71
2019-03-18T03:48:41.292Z,83.69
2019-03-18T03:51:12.467Z,83.05
2019-03-18T03:53:43.556Z,82.38
2019-03-18T03:56:14.599Z,83.12
2019-03-18T03:58:46.118Z,83.86
2019-03-18T04:01:17.176Z,83.90
2019-03-18T04:03:48.190Z,83.34
2019-03-18T04:06:19.254Z,82.79
2019-03-18T04:08:50.238Z,81.89
2019-03-18T04:11:21.342Z,80.54
2019-03-18T04:13:52.416Z,80.24
2019-03-18T04:16:23.544Z,80.60
2019-03-18T04:18:54.625Z,81.35
2019-03-18T04:21:25.728Z,81.54
2019-03-18T04:23:56.770Z,81.66
2019-03-18T04:26:28.932Z,81.87
2019-03-18T04:29:00.156Z,81.61
2019-03-18T04:31:31.226Z,81.29
2019-03-18T04:34:02.323Z,81.11
2019-03-18T04:36:33.406Z,81.57
2019-03-18T04:39:06.230Z,81.27
2019-03-18T04:41:37.537Z,80.78
2019-03-18T04:44:08.712Z,80.02
2019-03-18T04:46:39.780Z,79.64
2019-03-18T04:49:10.970Z,79.68
2019-03-18T04:51:42.115Z,79.03
2019-03-18T04:54:13.157Z,78.97
2019-03-18T04:56:44.198Z,79.03
2019-03-18T04:59:15.381Z,79.21
2019-03-18T05:01:46.398Z,78.75
2019-03-18T05:04:17.524Z,78.67
2019-03-18T05:06:48.571Z,78.75
2019-03-18T05:09:19.604Z,78.78
2019-03-18T05:11:50.753Z,78.78
2019-03-18T05:14:21.796Z,78.03
2019-03-18T05:16:52.782Z,78.19
2019-03-18T05:19:23.873Z,77.87
2019-03-18T05:21:54.868Z,76.76
2019-03-18T05:24:25.971Z,76.47
2019-03-18T05:26:57.111Z,76.45
2019-03-18T05:29:28.339Z,76.08
2019-03-18T05:31:59.390Z,76.07
2019-03-18T05:34:30.593Z,76.05
2019-03-18T05:37:01.759Z,76.53
2019-03-18T05:39:32.784Z,76.00
2019-03-18T05:42:04.002Z,75.56
2019-03-18T05:44:35.727Z,75.93
2019-03-18T05:47:06.766Z,75.81
2019-03-18T05:49:37.878Z,75.90
2019-03-18T05:52:09.040Z,76.05
2019-03-18T05:54:40.069Z,76.03
2019-03-18T05:57:11.252Z,75.44
2019-03-18T05:59:42.497Z,75.68
2019-03-18T06:02:13.667Z,75.75
2019-03-18T06:04:44.790Z,75.33
2019-03-18T06:07:15.816Z,74.39
2019-03-18T06:09:46.961Z,74.09
2019-03-18T06:12:18.166Z,74.22
2019-03-18T06:14:49.355Z,74.89
2019-03-18T06:17:20.565Z,74.17
2019-03-18T06:19:52.033Z,73.93
2019-03-18T06:22:23.212Z,73.92
2019-03-18T06:24:54.408Z,74.03
2019-03-18T06:27:26.326Z,73.16
2019-03-18T06:29:57.562Z,72.78
2019-03-18T06:32:28.855Z,73.22
2019-03-18T06:35:00.350Z,72.59
2019-03-18T06:37:31.449Z,73.05
2019-03-18T06:40:02.649Z,72.62
2019-03-18T06:42:33.724Z,73.00
2019-03-18T06:45:07.448Z,72.39
2019-03-18T06:47:38.790Z,72.73
2019-03-18T06:50:11.316Z,72.48
2019-03-18T06:52:42.421Z,72.16
2019-03-18T06:55:14.667Z,72.29
2019-03-18T06:57:45.766Z,71.29
2019-03-18T07:00:17.412Z,71.86
2019-03-18T07:02:48.433Z,71.85
2019-03-18T07:05:20.355Z,71.60
2019-03-18T07:07:51.485Z,71.70
2019-03-18T07:10:22.615Z,71.98
2019-03-18T07:12:53.854Z,71.18
2019-03-18T07:15:25.754Z,71.01
2019-03-18T07:17:56.766Z,70.44
2019-03-18T07:20:27.961Z,70.12
2019-03-18T07:22:59.253Z,69.79
2019-03-18T07:25:30.327Z,69.19
2019-03-18T07:28:01.512Z,68.63
2019-03-18T07:30:32.586Z,68.35
2019-03-18T07:33:03.668Z,67.72
2019-03-18T07:35:34.726Z,67.35
2019-03-18T07:38:05.917Z,67.35
2019-03-18T07:40:37.153Z,66.87
2019-03-18T07:43:08.203Z,66.65
2019-03-18T07:45:39.389Z,66.24
2019-03-18T07:48:12.542Z,65.51
2019-03-18T07:50:43.404Z,65.51
2019-03-18T07:53:14.506Z,64.87
2019-03-18T07:55:45.738Z,65.10
2019-03-18T07:58:16.786Z,64.59
2019-03-18T08:00:48.225Z,63.93
2019-03-18T08:03:19.390Z,63.85
2019-03-18T08:05:50.612Z,63.79
2019-03-18T08:08:21.817Z,63.79
2019-03-18T08:10:53.001Z,63.20
2019-03-18T08:13:24.314Z,63.20
2019-03-18T08:15:55.537Z,62.71
2019-03-18T08:18:26.678Z,62.05
2019-03-18T08:20:57.756Z,62.05
2019-03-18T08:23:29.097Z,61.67
2019-03-18T08:26:00.216Z,61.93
2019-03-18T08:28:31.380Z,61.06
2019-03-18T08:31:03.728Z,61.02
2019-03-18T08:33:34.742Z,61.48
2019-03-18T08:36:05.892Z,61.93
2019-03-18T08:38:37.036Z,62.54
2019-03-18T08:41:08.256Z,62.56
2019-03-18T08:43:39.648Z,62.41
2019-03-18T08:46:10.800Z,61.62
2019-03-18T08:48:42.045Z,60.97
2019-03-18T08:51:13.213Z,60.76
2019-03-18T08:53:45.460Z,60.19
2019-03-18T08:56:16.985Z,60.23
2019-03-18T08:58:48.207Z,60.26
2019-03-18T09:01:19.250Z,60.36
2019-03-18T09:03:50.397Z,59.96
2019-03-18T09:06:21.538Z,60.07
2019-03-18T09:08:52.791Z,59.57
2019-03-18T09:11:23.829Z,59.34
2019-03-18T09:13:55.089Z,59.62
2019-03-18T09:16:26.374Z,59.29
2019-03-18T09:19:08.147Z,59.11
2019-03-18T09:21:30.781Z,59.50
2019-03-18T09:24:02.636Z,59.41
2019-03-18T09:26:34.027Z,59.18
2019-03-18T09:29:05.289Z,58.23
2019-03-18T09:31:36.506Z,58.02
2019-03-18T09:34:07.669Z,57.87
2019-03-18T09:36:38.852Z,57.60
2019-03-18T09:39:09.992Z,57.45
2019-03-18T09:41:41.213Z,57.76
2019-03-18T09:44:12.578Z,57.49
2019-03-18T09:46:43.675Z,56.45
2019-03-18T09:49:21.418Z,56.66
2019-03-18T09:51:47.669Z,55.91
2019-03-18T09:54:19.325Z,54.83
2019-03-18T09:56:50.826Z,53.30
2019-03-18T09:59:22.316Z,52.22
2019-03-18T10:01:53.384Z,52.07
2019-03-18T10:04:24.585Z,51.09
2019-03-18T10:06:55.782Z,50.59
2019-03-18T10:09:26.884Z,50.64
2019-03-18T10:11:58.514Z,51.04
2019-03-18T10:14:29.641Z,51.05
2019-03-18T10:17:09.576Z,50.71
2019-03-18T10:19:34.016Z,51.61
2019-03-18T10:22:05.185Z,51.53
2019-03-18T10:24:36.366Z,51.62
2019-03-18T10:27:07.435Z,51.47
2019-03-18T10:29:38.693Z,51.68
2019-03-18T10:32:09.710Z,50.97
2019-03-18T10:34:40.739Z,51.25
2019-03-18T10:37:12.032Z,51.27
2019-03-18T10:39:43.285Z,51.58
2019-03-18T10:42:14.517Z,52.00
2019-03-18T10:44:45.522Z,52.24
2019-03-18T10:47:16.548Z,51.75
2019-03-18T10:49:47.615Z,51.19
2019-03-18T10:52:18.727Z,51.01
2019-03-18T10:54:49.858Z,50.34
2019-03-18T10:57:20.944Z,50.61
2019-03-18T10:59:51.876Z,51.16
2019-03-18T11:02:22.917Z,51.39
2019-03-18T11:04:54.008Z,51.44
2019-03-18T11:07:24.984Z,51.18
2019-03-18T11:09:56.000Z,51.10
2019-03-18T11:12:26.957Z,51.39
2019-03-18T11:14:58.015Z,51.79
2019-03-18T11:17:29.206Z,51.24
2019-03-18T11:20:00.295Z,51.24
2019-03-18T11:22:31.513Z,51.47
2019-03-18T11:25:02.634Z,51.49
2019-03-18T11:27:33.625Z,51.31
2019-03-18T11:30:09.844Z,51.11
2019-03-18T11:32:41.795Z,50.50
2019-03-18T11:35:12.821Z,50.39
2019-03-18T11:37:43.924Z,49.73
2019-03-18T11:40:17.139Z,49.76
2019-03-18T11:42:48.218Z,49.45
2019-03-18T11:45:19.531Z,49.45
2019-03-18T11:47:50.827Z,49.29
2019-03-18T11:50:22.251Z,48.73
2019-03-18T11:52:53.656Z,48.31
2019-03-18T11:55:27.016Z,48.84
2019-03-18T11:57:58.085Z,48.68
2019-03-18T12:00:29.139Z,47.87
2019-03-18T12:03:00.335Z,47.71
2019-03-18T12:05:31.447Z,47.59
2019-03-18T12:08:02.462Z,47.73
2019-03-18T12:10:33.474Z,47.38
2019-03-18T12:13:04.347Z,47.08
2019-03-18T12:15:36.648Z,47.22
2019-03-18T12:18:07.921Z,47.15
2019-03-18T12:20:39.013Z,46.98
2019-03-18T12:23:09.924Z,47.59
2019-03-18T12:25:40.969Z,47.47
2019-03-18T12:28:11.925Z,46.82
2019-03-18T12:30:42.917Z,47.11
2019-03-18T12:33:14.016Z,47.26
2019-03-18T12:35:45.100Z,46.91
2019-03-18T12:38:16.138Z,47.08
2019-03-18T12:40:47.980Z,47.58
2019-03-18T12:43:19.077Z,48.19
2019-03-18T12:45:50.158Z,47.60
2019-03-18T12:48:21.388Z,47.01
2019-03-18T12:50:56.176Z,47.20
2019-03-18T12:53:25.126Z,47.23
2019-03-18T12:55:56.309Z,47.37
2019-03-18T12:58:28.455Z,47.14
2019-03-18T13:01:11.866Z,47.12
2019-03-18T13:03:32.265Z,47.21
2019-03-18T13:06:03.820Z,47.54
2019-03-18T13:08:34.933Z,47.70
2019-03-18T13:11:06.006Z,48.09
2019-03-18T13:13:37.108Z,47.78
2019-03-18T13:16:08.293Z,48.05
2019-03-18T13:18:39.502Z,48.58
2019-03-18T13:21:10.650Z,48.65
2019-03-18T13:23:41.666Z,48.55
2019-03-18T13:26:12.981Z,48.52
2019-03-18T13:28:45.363Z,48.25
2019-03-18T13:31:16.576Z,47.79
2019-03-18T13:33:47.737Z,47.00
2019-03-18T13:36:18.768Z,47.35
2019-03-18T13:38:49.790Z,47.67
2019-03-18T13:41:20.955Z,47.46
2019-03-18T13:43:51.969Z,47.93
2019-03-18T13:46:23.178Z,47.91
2019-03-18T13:48:54.276Z,47.47
2019-03-18T13:51:25.350Z,47.40
2019-03-18T13:53:56.477Z,46.30
2019-03-18T13:56:28.189Z,46.83
2019-03-18T13:58:59.295Z,47.12
2019-03-18T14:01:30.508Z,46.17
2019-03-18T14:04:01.597Z,46.56
2019-03-18T14:06:33.761Z,46.12
2019-03-18T14:09:06.882Z,45.91
2019-03-18T14:11:38.024Z,46.13
2019-03-18T14:14:09.167Z,45.97
2019-03-18T14:16:40.211Z,45.87
2019-03-18T14:19:11.752Z,45.41
2019-03-18T14:21:43.237Z,44.85
2019-03-18T14:24:14.579Z,45.14
2019-03-18T14:26:45.935Z,45.21
2019-03-18T14:29:17.172Z,45.43
2019-03-18T14:31:48.496Z,45.79
2019-03-18T14:34:19.614Z,45.25
2019-03-18T14:36:51.882Z,45.56
2019-03-18T14:39:22.991Z,45.20
2019-03-18T14:41:54.186Z,44.81
2019-03-18T14:44:25.289Z,44.56
2019-03-18T14:46:56.337Z,44.24
2019-03-18T14:49:27.463Z,44.47
2019-03-18T14:51:58.584Z,44.70
2019-03-18T14:54:29.612Z,44.17
2019-03-18T14:57:00.694Z,44.13
2019-03-18T14:59:32.330Z,44.59
2019-03-18T15:02:03.420Z,44.75
2019-03-18T15:04:34.531Z,44.63
2019-03-18T15:07:05.577Z,44.45
2019-03-18T15:09:36.718Z,44.64
2019-03-18T15:12:07.878Z,44.54
2019-03-18T15:14:39.010Z,45.05
2019-03-18T15:17:10.166Z,44.95
2019-03-18T15:19:41.161Z,45.23
2019-03-18T15:22:12.349Z,44.76
2019-03-18T15:24:43.554Z,44.78
2019-03-18T15:27:14.726Z,44.34
2019-03-18T15:29:45.689Z,44.85
2019-03-18T15:32:16.607Z,45.43
2019-03-18T15:34:47.616Z,45.50
2019-03-18T15:37:18.594Z,46.13
2019-03-18T15:39:49.645Z,45.79
2019-03-18T15:42:20.740Z,46.27
2019-03-18T15:44:51.727Z,46.09
2019-03-18T15:47:22.761Z,46.61
2019-03-18T15:49:53.911Z,46.95
2019-03-18T15:52:25.127Z,47.26
2019-03-18T15:54:56.192Z,47.29
2019-03-18T15:57:29.929Z,47.29
2019-03-18T15:59:59.716Z,47.57
2019-03-18T16:02:30.641Z,47.27
2019-03-18T16:05:01.600Z,47.99
2019-03-18T16:07:32.769Z,48.04
2019-03-18T16:10:05.017Z,48.04
2019-03-18T16:12:35.981Z,48.53
2019-03-18T16:15:09.626Z,49.05
2019-03-18T16:17:41.651Z,49.16
2019-03-18T16:20:20.657Z,49.45
2019-03-18T16:22:51.616Z,48.75
2019-03-18T16:25:22.710Z,49.26
2019-03-18T16:27:53.664Z,49.73
2019-03-18T16:30:24.593Z,50.06
2019-03-18T16:32:55.652Z,50.22
2019-03-18T16:35:26.647Z,50.18
2019-03-18T16:37:58.135Z,49.83
2019-03-18T16:40:29.260Z,49.91
2019-03-18T16:43:00.355Z,50.10
2019-03-18T16:45:31.489Z,50.45
2019-03-18T16:48:02.718Z,50.42
2019-03-18T16:50:33.914Z,50.55
2019-03-18T16:53:05.136Z,51.12
2019-03-18T16:55:36.186Z,51.00
2019-03-18T16:58:07.223Z,51.04
2019-03-18T17:00:38.217Z,50.97
2019-03-18T17:03:09.492Z,51.34
2019-03-18T17:05:40.449Z,51.14
2019-03-18T17:08:11.454Z,51.63
2019-03-18T17:10:42.427Z,51.88
2019-03-18T17:13:13.582Z,52.38
2019-03-18T17:15:44.577Z,52.04
2019-03-18T17:18:17.986Z,52.51
2019-03-18T17:20:48.712Z,52.62
2019-03-18T17:23:20.981Z,52.94
2019-03-18T17:25:52.323Z,53.23
2019-03-18T17:28:23.369Z,53.89
2019-03-18T17:30:54.523Z,53.81
2019-03-18T17:33:25.683Z,54.10
2019-03-18T17:35:56.734Z,54.25
2019-03-18T17:38:28.010Z,54.40
2019-03-18T17:40:59.000Z,54.32
2019-03-18T17:43:30.336Z,54.42
2019-03-18T17:46:01.471Z,54.34
2019-03-18T17:48:32.652Z,55.10
2019-03-18T17:51:03.887Z,54.65
2019-03-18T17:53:35.003Z,54.95
2019-03-18T17:56:06.288Z,55.06
2019-03-18T17:58:37.507Z,54.96
2019-03-18T18:01:08.642Z,54.86
2019-03-18T18:03:39.699Z,55.14
2019-03-18T18:06:10.788Z,55.38
2019-03-18T18:08:42.091Z,55.04
2019-03-18T18:11:13.294Z,55.30
2019-03-18T18:13:44.460Z,55.89
2019-03-18T18:16:15.581Z,56.15
2019-03-18T18:18:46.797Z,55.81
2019-03-18T18:21:17.941Z,56.35
2019-03-18T18:23:49.243Z,56.29
2019-03-18T18:26:20.294Z,56.80
2019-03-18T18:28:51.336Z,56.92
2019-03-18T18:31:22.319Z,57.31
2019-03-18T18:33:53.788Z,57.70
2019-03-18T18:36:25.424Z,57.67
2019-03-18T18:38:56.633Z,58.12
2019-03-18T18:41:27.851Z,57.69
2019-03-18T18:43:59.162Z,58.24
2019-03-18T18:46:30.208Z,58.41
2019-03-18T18:49:02.145Z,58.70
2019-03-18T18:51:33.269Z,59.20
2019-03-18T18:54:04.675Z,59.36
2019-03-18T18:56:35.771Z,59.35
2019-03-18T18:59:06.956Z,59.58
2019-03-18T19:01:38.053Z,59.56
2019-03-18T19:04:09.194Z,60.14
2019-03-18T19:06:40.218Z,60.50
2019-03-18T19:09:11.267Z,60.84
2019-03-18T19:11:42.356Z,61.16
2019-03-18T19:14:13.428Z,61.38
2019-03-18T19:16:44.493Z,61.83
2019-03-18T19:19:15.633Z,62.16
2019-03-18T19:21:47.083Z,62.38
2019-03-18T19:24:18.392Z,62.41
2019-03-18T19:26:49.468Z,62.59
2019-03-18T19:29:20.637Z,62.82
2019-03-18T19:31:51.819Z,62.69
2019-03-18T19:34:22.933Z,62.69
2019-03-18T19:36:54.170Z,62.53
2019-03-18T19:39:25.184Z,62.63
2019-03-18T19:41:56.183Z,62.81
2019-03-18T19:44:27.228Z,63.01
2019-03-18T19:46:58.216Z,63.34
2019-03-18T19:49:29.272Z,63.54
2019-03-18T19:52:00.312Z,63.83
2019-03-18T19:54:31.454Z,64.19
2019-03-18T19:57:03.621Z,64.25
2019-03-18T19:59:34.669Z,64.69
2019-03-18T20:02:05.706Z,64.69
2019-03-18T20:04:36.676Z,64.55
2019-03-18T20:07:07.742Z,64.33
2019-03-18T20:09:38.882Z,64.68
2019-03-18T20:12:09.992Z,64.38
2019-03-18T20:14:41.175Z,64.38
2019-03-18T20:17:12.291Z,64.26
2019-03-18T20:19:43.459Z,64.14
2019-03-18T20:22:14.557Z,64.53
2019-03-18T20:24:45.692Z,64.53
2019-03-18T20:27:16.707Z,64.38
2019-03-18T20:29:47.808Z,64.43
2019-03-18T20:32:18.815Z,64.43
2019-03-18T20:34:49.871Z,64.73
2019-03-18T20:37:20.890Z,64.74
2019-03-18T20:39:51.957Z,64.86
2019-03-18T20:42:23.097Z,64.74
2019-03-18T20:44:54.157Z,64.92
2019-03-18T20:47:25.283Z,64.92
2019-03-18T20:49:57.494Z,64.95
2019-03-18T20:52:29.005Z,65.38
2019-03-18T20:55:00.160Z,65.11
2019-03-18T20:57:31.569Z,65.35
2019-03-18T21:00:03.275Z,65.47
2019-03-18T21:02:35.831Z,65.57
2019-03-18T21:05:09.070Z,65.55
2019-03-18T21:07:40.257Z,65.48
2019-03-18T21:10:16.408Z,65.45
2019-03-18T21:12:47.513Z,65.45
2019-03-18T21:15:18.861Z,65.57
2019-03-18T21:17:49.973Z,65.67
2019-03-18T21:20:23.420Z,65.72
2019-03-18T21:22:53.909Z,65.72
2019-03-18T21:25:24.829Z,65.89
2019-03-18T21:27:56.290Z,66.15
2019-03-18T21:30:27.362Z,66.15
2019-03-18T21:32:58.492Z,66.28
2019-03-18T21:35:29.529Z,66.30
2019-03-18T21:38:00.820Z,66.33
2019-03-18T21:40:31.899Z,66.11
2019-03-18T21:43:02.981Z,66.19
2019-03-18T21:45:34.084Z,65.98
2019-03-18T21:48:05.133Z,66.00
2019-03-18T21:50:36.175Z,65.77
2019-03-18T21:53:07.523Z,65.88
2019-03-18T21:55:38.603Z,65.63
2019-03-18T21:58:10.092Z,65.73
2019-03-18T22:00:41.191Z,65.73
2019-03-18T22:03:12.445Z,66.12
2019-03-18T22:05:43.550Z,66.41
2019-03-18T22:08:14.836Z,66.41
2019-03-18T22:10:45.909Z,66.68
2019-03-18T22:13:17.004Z,66.63
2019-03-18T22:15:49.276Z,66.59
2019-03-18T22:18:22.973Z,66.58
2019-03-18T22:20:56.597Z,66.38
2019-03-18T22:23:29.839Z,66.44
2019-03-18T22:26:03.253Z,66.52
2019-03-18T22:28:35.236Z,66.58
2019-03-18T22:31:06.742Z,66.68
2019-03-18T22:33:37.803Z,66.82
2019-03-18T22:36:08.943Z,66.79
2019-03-18T22:38:39.932Z,66.79
2019-03-18T22:41:11.029Z,66.57
2019-03-18T22:43:42.006Z,66.58
2019-03-18T22:46:13.011Z,66.68
2019-03-18T22:48:44.180Z,66.76
2019-03-18T22:51:15.236Z,66.98
2019-03-18T22:53:46.346Z,67.01
2019-03-18T22:56:17.548Z,67.14
2019-03-18T22:58:48.631Z,67.20
2019-03-18T23:01:19.760Z,67.16
2019-03-18T23:03:50.861Z,67.15
2019-03-18T23:06:21.956Z,67.15
2019-03-18T23:08:54.162Z,67.19
2019-03-18T23:11:25.149Z,67.38
2019-03-18T23:13:56.303Z,67.48
2019-03-18T23:16:27.288Z,67.67
2019-03-18T23:18:59.531Z,67.81
2019-03-18T23:21:30.525Z,68.00
2019-03-18T23:24:01.567Z,68.16
2019-03-18T23:26:32.790Z,68.34
2019-03-18T23:29:03.857Z,68.35
2019-03-18T23:31:34.989Z,68.36
2019-03-18T23:34:06.181Z,68.81
2019-03-18T23:36:37.315Z,68.70
2019-03-18T23:39:08.733Z,68.97
2019-03-18T23:41:39.909Z,68.95
2019-03-18T23:44:11.172Z,69.23
2019-03-18T23:46:42.222Z,69.35
2019-03-18T23:49:13.390Z,69.46
2019-03-18T23:51:44.565Z,69.25
2019-03-18T23:54:15.751Z,69.32
2019-03-18T23:56:46.765Z,69.30
2019-03-18T23:59:17.853Z,69.19
